Time;durP1;ratioP1;P1;durP2;ratioP2;P2;SDS_P1;SDS_P2;PMS_P1;PMS_P2;Temp;Humidity;BMP_temperature;BMP_pressure;BME280_temperature;BME280_humidity;BME280_pressure;Samples;Min_cycle;Max_cycle;Signal;HPM_P1;HPM_P2
2021/03/25 04:02:41;;;;;;;11.03;7.62;;;;;;;-0.34;100.00;99720.25;1756693;78;21621;-61
2021/03/25 04:05:23;;;;;;;10.85;7.17;;;;;;;-0.33;100.00;99730.83;1779183;79;21258;-61
2021/03/25 04:08:23;;;;;;;11.53;7.33;;;;;;;-0.31;100.00;99735.81;1777078;79;21549;-60
2021/03/25 04:11:13;;;;;;;8.97;7.13;;;;;;;-0.26;100.00;99731.95;1803963;77;28494;-62
2021/03/25 04:13:46;;;;;;;10.15;6.85;;;;;;;-0.26;100.00;99735.80;1781799;78;21061;-59
2021/03/25 04:16:17;;;;;;;10.20;7.33;;;;;;;-0.22;100.00;99735.55;1719434;80;22250;-63
2021/03/25 04:19:11;;;;;;;8.95;6.78;;;;;;;-0.22;100.00;99732.98;1731445;81;21150;-59
2021/03/25 04:21:58;;;;;;;9.45;6.47;;;;;;;-0.22;100.00;99734.27;1729450;81;21007;-59
2021/03/25 04:24:29;;;;;;;10.70;7.75;;;;;;;-0.21;100.00;99737.16;1731697;81;21007;-59
2021/03/25 04:27:10;;;;;;;12.18;8.00;;;;;;;-0.21;100.00;99741.00;1780671;80;20947;-62
2021/03/25 04:29:47;;;;;;;10.82;7.47;;;;;;;-0.20;100.00;99740.87;1744409;80;21226;-59
2021/03/25 04:32:15;;;;;;;12.70;8.23;;;;;;;-0.19;100.00;99737.39;1767691;80;21015;-59
2021/03/25 04:34:44;;;;;;;10.63;7.80;;;;;;;-0.18;100.00;99740.76;1733849;81;21106;-59
2021/03/25 04:37:13;;;;;;;11.25;7.45;;;;;;;-0.17;100.00;99744.94;1756246;80;21027;-59
2021/03/25 04:39:42;;;;;;;12.65;8.43;;;;;;;-0.18;100.00;99744.13;1753034;80;21028;-60
2021/03/25 04:42:11;;;;;;;12.28;7.92;;;;;;;-0.17;100.00;99740.62;1750139;80;21599;-58
2021/03/25 04:44:49;;;;;;;10.80;7.50;;;;;;;-0.15;100.00;99737.92;1756546;80;21255;-59
2021/03/25 04:47:36;;;;;;;10.98;8.28;;;;;;;-0.14;100.00;99742.94;1754508;80;20984;-59
2021/03/25 04:50:25;;;;;;;10.72;7.53;;;;;;;-0.11;100.00;99745.72;1720167;80;21010;-59
2021/03/25 04:53:21;;;;;;;13.05;8.18;;;;;;;-0.09;100.00;99748.48;1764296;80;21216;-59
2021/03/25 04:55:51;;;;;;;10.28;6.97;;;;;;;-0.08;100.00;99756.50;1771694;80;21643;-62
2021/03/25 04:58:34;;;;;;;12.80;8.98;;;;;;;-0.08;100.00;99760.34;1768576;80;21171;-61
2021/03/25 05:01:09;;;;;;;11.03;7.67;;;;;;;-0.05;100.00;99768.25;1765641;80;21002;-60
2021/03/25 05:03:38;;;;;;;11.68;8.03;;;;;;;-0.03;100.00;99770.23;1763426;80;21034;-60
2021/03/25 05:06:27;;;;;;;10.32;7.12;;;;;;;-0.03;100.00;99765.91;1766812;80;22198;-61
2021/03/25 05:08:58;;;;;;;12.93;8.45;;;;;;;-0.03;100.00;99768.48;1765310;80;21006;-60
2021/03/25 05:11:27;;;;;;;11.68;8.05;;;;;;;-0.01;100.00;99770.91;1772822;80;21143;-60
2021/03/25 05:13:58;;;;;;;12.10;8.18;;;;;;;0.01;100.00;99771.59;1744359;81;21180;-61
2021/03/25 05:16:40;;;;;;;11.50;8.10;;;;;;;0.03;100.00;99775.30;1795125;78;21128;-61
2021/03/25 05:19:30;;;;;;;12.90;9.13;;;;;;;0.05;100.00;99770.41;1798574;79;20971;-61
2021/03/25 05:22:25;;;;;;;11.60;8.20;;;;;;;0.08;100.00;99772.72;1798395;79;21504;-61
2021/03/25 05:25:11;;;;;;;11.73;7.67;;;;;;;0.11;100.00;99778.84;1789517;79;21105;-61
2021/03/25 05:27:57;;;;;;;11.93;7.85;;;;;;;0.17;100.00;99777.54;1792609;78;21185;-61
2021/03/25 05:30:30;;;;;;;12.73;7.97;;;;;;;0.20;100.00;99775.53;1796260;79;21204;-61
2021/03/25 05:33:02;;;;;;;11.08;7.40;;;;;;;0.24;100.00;99772.25;1769528;79;21176;-61
2021/03/25 05:35:41;;;;;;;15.48;8.65;;;;;;;0.28;100.00;99774.89;1796404;79;21192;-62
2021/03/25 05:38:09;;;;;;;15.05;8.48;;;;;;;0.32;100.00;99776.25;1797536;79;21153;-64
2021/03/25 05:40:54;;;;;;;12.07;8.15;;;;;;;0.38;100.00;99776.19;1792280;78;21176;-60
2021/03/25 05:43:51;;;;;;;10.78;7.40;;;;;;;0.42;100.00;99778.87;1789029;79;21207;-61
2021/03/25 05:46:55;;;;;;;11.50;8.83;;;;;;;0.44;100.00;99783.38;1796058;78;21159;-60
2021/03/25 05:49:54;;;;;;;12.75;8.85;;;;;;;0.45;100.00;99783.23;1797996;78;22351;-60
2021/03/25 05:52:58;;;;;;;12.25;8.13;;;;;;;0.46;100.00;99787.92;1797023;78;21169;-62
2021/03/25 05:55:59;;;;;;;14.15;9.05;;;;;;;0.47;100.00;99788.25;1737214;80;21579;-61
2021/03/25 05:58:51;;;;;;;14.45;9.28;;;;;;;0.50;100.00;99799.55;1767201;80;21168;-60
2021/03/25 06:01:57;;;;;;;13.03;8.48;;;;;;;0.50;100.00;99784.16;1755830;80;21211;-60
2021/03/25 06:04:33;;;;;;;14.68;9.35;;;;;;;0.53;100.00;99790.76;1762825;80;22510;-60
2021/03/25 06:07:18;;;;;;;13.25;8.85;;;;;;;0.54;100.00;99794.49;1768051;80;21222;-61
2021/03/25 06:10:12;;;;;;;13.43;8.93;;;;;;;0.57;100.00;99794.69;1768529;80;21175;-61
2021/03/25 06:13:07;;;;;;;14.87;9.43;;;;;;;0.60;100.00;99793.14;1766243;80;21231;-61
2021/03/25 06:16:03;;;;;;;12.78;8.25;;;;;;;0.69;100.00;99807.30;1744433;80;21133;-59
2021/03/25 06:19:12;;;;;;;14.07;9.13;;;;;;;0.78;100.00;99792.87;1768647;80;21323;-61
2021/03/25 06:22:15;;;;;;;12.13;8.60;;;;;;;0.82;100.00;99792.13;1774730;80;22402;-60
2021/03/25 06:25:23;;;;;;;13.20;8.95;;;;;;;0.86;100.00;99795.58;1769087;80;21006;-61
2021/03/25 06:28:27;;;;;;;16.90;9.40;;;;;;;0.88;100.00;99793.70;1762922;80;21630;-63
2021/03/25 06:31:44;;;;;;;14.43;9.08;;;;;;;0.91;100.00;99796.45;1804194;78;21088;-61
2021/03/25 06:34:35;;;;;;;14.18;8.65;;;;;;;0.93;100.00;99796.67;1799241;78;21351;-61
2021/03/25 06:37:18;;;;;;;12.68;9.10;;;;;;;0.97;100.00;99777.98;1790953;78;21214;-61
2021/03/25 06:40:05;;;;;;;15.25;10.08;;;;;;;1.05;100.00;99785.82;1796608;78;21235;-61
2021/03/25 06:42:59;;;;;;;14.63;9.23;;;;;;;1.07;100.00;99779.29;1751514;80;21180;-60
2021/03/25 06:45:35;;;;;;;15.48;10.55;;;;;;;1.10;100.00;99790.55;1771841;80;21141;-61
2021/03/25 06:48:24;;;;;;;13.30;8.90;;;;;;;1.12;100.00;99788.67;1766362;80;21262;-61
2021/03/25 06:50:53;;;;;;;15.13;9.65;;;;;;;1.13;100.00;99782.59;1774948;80;21149;-61
2021/03/25 06:53:31;;;;;;;15.55;9.23;;;;;;;1.14;100.00;99790.65;1730794;81;21201;-63
2021/03/25 06:56:13;;;;;;;16.77;10.13;;;;;;;1.17;100.00;99799.34;1768092;80;21232;-63
2021/03/25 06:58:54;;;;;;;15.03;9.73;;;;;;;1.18;100.00;99801.80;1749299;81;21057;-61
2021/03/25 07:01:44;;;;;;;14.20;8.85;;;;;;;1.19;100.00;99793.14;1739863;82;21392;-61
2021/03/25 07:04:25;;;;;;;15.32;9.45;;;;;;;1.21;100.00;99800.25;1764139;80;21643;-60
2021/03/25 07:07:02;;;;;;;13.25;9.48;;;;;;;1.24;100.00;99802.19;1771099;80;22468;-59
2021/03/25 07:09:36;;;;;;;14.15;9.60;;;;;;;1.25;100.00;99810.22;1750456;80;21147;-59
2021/03/25 07:12:08;;;;;;;12.47;8.68;;;;;;;1.24;100.00;99797.05;1772720;80;21200;-60
2021/03/25 07:14:40;;;;;;;14.38;9.53;;;;;;;1.24;100.00;99801.72;1728253;81;21206;-61
2021/03/25 07:17:13;;;;;;;14.83;9.48;;;;;;;1.27;100.00;99801.93;1769067;80;21157;-60
2021/03/25 07:19:48;;;;;;;14.78;9.50;;;;;;;1.31;100.00;99797.67;1771091;80;20967;-61
2021/03/25 07:22:24;;;;;;;16.37;10.35;;;;;;;1.33;100.00;99791.94;1738431;80;21787;-64
2021/03/25 07:24:55;;;;;;;14.47;8.93;;;;;;;1.36;100.00;99802.39;1793753;78;21651;-62
2021/03/25 07:27:33;;;;;;;13.35;9.15;;;;;;;1.39;100.00;99801.66;1799047;79;21630;-62
2021/03/25 07:30:10;;;;;;;17.67;9.58;;;;;;;1.44;100.00;99804.64;1797565;79;21528;-61
2021/03/25 07:32:57;;;;;;;13.80;9.30;;;;;;;1.52;100.00;99801.88;1739076;82;21204;-63
2021/03/25 07:35:43;;;;;;;14.73;9.50;;;;;;;1.53;100.00;99805.58;1757116;80;21148;-67
2021/03/25 07:38:27;;;;;;;14.15;8.98;;;;;;;1.51;100.00;99805.37;1746953;80;21204;-62
2021/03/25 07:41:24;;;;;;;13.90;8.85;;;;;;;1.47;100.00;99807.39;1769314;80;21203;-64
2021/03/25 07:43:59;;;;;;;14.83;9.20;;;;;;;1.41;100.00;99816.94;1774158;80;21085;-65
2021/03/25 07:46:36;;;;;;;13.98;8.85;;;;;;;1.32;100.00;99818.54;1771821;78;21037;-71
2021/03/25 07:49:16;;;;;;;12.98;8.33;;;;;;;1.26;100.00;99821.66;1784031;79;21026;-67
2021/03/25 07:51:52;;;;;;;13.00;8.73;;;;;;;1.24;100.00;99815.83;1739407;80;21188;-67
2021/03/25 07:54:31;;;;;;;14.25;9.93;;;;;;;1.28;100.00;99815.09;1791715;79;22257;-62
2021/03/25 07:57:12;;;;;;;15.15;10.20;;;;;;;1.32;100.00;99819.02;1799927;78;21057;-63
2021/03/25 07:59:52;;;;;;;16.45;9.50;;;;;;;1.35;100.00;99818.75;1790498;78;20979;-64
2021/03/25 08:02:39;;;;;;;15.00;9.28;;;;;;;1.39;100.00;99813.69;1789510;79;21197;-65
2021/03/25 08:05:29;;;;;;;14.05;9.03;;;;;;;1.42;100.00;99814.70;1740135;80;21213;-68
2021/03/25 08:08:03;;;;;;;15.48;9.83;;;;;;;1.43;100.00;99811.99;1765019;80;21606;-68
2021/03/25 08:10:42;;;;;;;13.35;9.48;;;;;;;1.50;100.00;99803.28;1749714;80;21151;-73
2021/03/25 08:13:26;;;;;;;21.33;9.53;;;;;;;1.54;100.00;99816.66;1788337;79;21216;-63
2021/03/25 08:16:09;;;;;;;15.70;9.83;;;;;;;1.56;100.00;99807.08;1768683;79;21565;-65
2021/03/25 08:19:01;;;;;;;13.88;9.05;;;;;;;1.54;100.00;99820.04;1784330;79;22463;-63
2021/03/25 08:21:44;;;;;;;16.17;8.85;;;;;;;1.60;100.00;99827.22;1784631;79;22270;-64
2021/03/25 08:24:48;;;;;;;14.63;9.23;;;;;;;1.64;100.00;99822.14;1788016;79;21176;-62
2021/03/25 08:27:43;;;;;;;12.88;8.68;;;;;;;1.66;100.00;99822.80;1793849;79;21566;-68
2021/03/25 08:30:36;;;;;;;14.25;8.58;;;;;;;1.73;100.00;99829.97;1732432;82;21075;-63
2021/03/25 08:33:38;;;;;;;11.85;8.35;;;;;;;1.78;100.00;99829.08;1755902;81;21058;-62
2021/03/25 08:36:18;;;;;;;11.05;7.58;;;;;;;1.85;100.00;99829.68;1792054;79;21200;-70
2021/03/25 08:38:57;;;;;;;12.90;8.13;;;;;;;1.90;100.00;99837.00;1735174;82;21138;-64
2021/03/25 08:41:52;;;;;;;14.83;9.15;;;;;;;1.89;100.00;99845.16;1742656;81;21197;-63
2021/03/25 08:44:49;;;;;;;12.35;8.13;;;;;;;1.90;100.00;99831.86;1758540;80;21212;-64
2021/03/25 08:47:30;;;;;;;11.88;8.35;;;;;;;1.95;100.00;99838.20;1754983;81;20939;-65
2021/03/25 08:50:31;;;;;;;12.60;7.80;;;;;;;2.03;100.00;99838.80;1740405;80;21493;-63
2021/03/25 08:53:12;;;;;;;12.75;9.43;;;;;;;2.09;100.00;99834.88;1735806;80;21077;-63
2021/03/25 08:55:43;;;;;;;12.35;8.20;;;;;;;2.09;100.00;99840.82;1737085;80;20996;-66
2021/03/25 08:58:20;;;;;;;12.65;7.92;;;;;;;2.08;100.00;99839.66;1730304;81;21070;-72
2021/03/25 09:00:54;;;;;;;11.78;8.75;;;;;;;2.08;100.00;99838.38;1712406;82;21198;-71
2021/03/25 09:03:39;;;;;;;12.85;8.53;;;;;;;2.09;100.00;99842.59;1725053;82;21501;-68
2021/03/25 09:06:20;;;;;;;13.35;8.88;;;;;;;2.05;100.00;99842.05;1727698;81;21334;-68
2021/03/25 09:08:53;;;;;;;11.45;7.87;;;;;;;2.03;100.00;99841.84;1727361;82;22297;-69
2021/03/25 09:11:21;;;;;;;12.25;8.28;;;;;;;1.96;100.00;99849.28;1729081;81;21087;-79
2021/03/25 09:13:58;;;;;;;13.00;7.65;;;;;;;1.92;100.00;99849.23;1785334;79;22324;-72
2021/03/25 09:16:33;;;;;;;12.98;7.50;;;;;;;1.89;100.00;99840.50;1791978;79;22118;-71
2021/03/25 09:19:05;;;;;;;12.40;7.45;;;;;;;1.87;100.00;99841.13;1740919;80;21208;-70
2021/03/25 09:21:34;;;;;;;11.03;8.18;;;;;;;1.84;100.00;99847.81;1754253;80;21017;-71
2021/03/25 09:24:08;;;;;;;12.73;8.48;;;;;;;1.81;100.00;99850.66;1793040;79;21128;-73
2021/03/25 09:26:57;;;;;;;12.03;8.43;;;;;;;1.79;100.00;99842.29;1788380;79;21100;-72
2021/03/25 09:29:33;;;;;;;13.22;8.40;;;;;;;1.78;100.00;99844.50;1793709;79;21200;-74
2021/03/25 09:32:07;;;;;;;13.38;8.33;;;;;;;1.80;100.00;99848.56;1792525;79;21659;-75
2021/03/25 09:34:48;;;;;;;12.68;8.38;;;;;;;1.83;100.00;99848.78;1793458;78;21212;-72
2021/03/25 09:37:27;;;;;;;14.58;8.50;;;;;;;1.87;100.00;99853.50;1791930;79;21192;-74
2021/03/25 09:40:11;;;;;;;14.15;8.68;;;;;;;1.91;100.00;99848.89;1794443;79;21635;-76
2021/03/25 09:42:40;;;;;;;14.65;8.08;;;;;;;1.95;100.00;99852.81;1796387;78;21197;-70
2021/03/25 09:45:33;;;;;;;13.50;8.40;;;;;;;2.01;100.00;99857.86;1741761;82;20998;-73
2021/03/25 09:48:03;;;;;;;12.18;8.05;;;;;;;2.08;100.00;99855.89;1701906;81;21572;-71
2021/03/25 09:50:33;;;;;;;11.28;7.28;;;;;;;2.20;100.00;99857.86;1800404;79;21188;-71
2021/03/25 09:53:08;;;;;;;13.22;8.35;;;;;;;2.30;100.00;99861.67;1735524;80;21553;-70
2021/03/25 09:55:39;;;;;;;11.30;7.60;;;;;;;2.35;100.00;99859.48;1760290;80;21198;-70
2021/03/25 09:58:29;;;;;;;11.55;7.60;;;;;;;2.36;100.00;99864.51;1758808;80;21098;-71
2021/03/25 10:00:58;;;;;;;12.88;8.58;;;;;;;2.38;100.00;99866.45;1760363;80;21764;-83
2021/03/25 10:04:00;;;;;;;15.50;6.95;;;;;;;2.39;100.00;99864.71;1749888;80;21165;-69
2021/03/25 10:06:47;;;;;;;10.35;7.08;;;;;;;2.41;100.00;99861.51;1757817;80;21232;-77
2021/03/25 10:09:51;;;;;;;12.13;7.10;;;;;;;2.47;100.00;99867.88;1817553;78;23940;-73
2021/03/25 10:12:48;;;;;;;11.75;7.67;;;;;;;2.44;100.00;99862.52;1792357;79;22508;-70
2021/03/25 10:15:41;;;;;;;10.25;7.00;;;;;;;2.48;100.00;99866.44;1709524;80;21043;-72
2021/03/25 10:18:20;;;;;;;14.07;7.28;;;;;;;2.52;100.00;99866.48;1753270;79;21194;-74
2021/03/25 10:21:07;;;;;;;9.48;6.87;;;;;;;2.57;100.00;99863.48;1754217;80;21507;-72
2021/03/25 10:23:56;;;;;;;11.03;6.92;;;;;;;2.64;100.00;99870.50;1755313;79;21035;-73
2021/03/25 10:26:51;;;;;;;10.88;7.28;;;;;;;2.70;100.00;99869.62;1760365;80;21017;-74
2021/03/25 10:29:33;;;;;;;10.40;6.70;;;;;;;2.76;100.00;99868.55;1629319;86;21173;-76
2021/03/25 10:32:04;;;;;;;9.05;6.70;;;;;;;2.85;100.00;99868.20;1643039;85;21057;-71
2021/03/25 10:34:41;;;;;;;10.88;7.08;;;;;;;2.88;100.00;99864.05;1639661;85;21129;-77
2021/03/25 10:37:35;;;;;;;11.00;7.28;;;;;;;2.87;100.00;99872.70;1641399;86;21179;-76
2021/03/25 10:40:15;;;;;;;10.70;6.97;;;;;;;2.84;100.00;99864.81;1640998;85;21159;-75
2021/03/25 10:42:54;;;;;;;9.30;6.40;;;;;;;2.92;100.00;99867.96;1641438;86;21120;-76
2021/03/25 10:45:54;;;;;;;10.68;6.40;;;;;;;3.06;100.00;99866.17;1633305;86;21646;-76
2021/03/25 10:48:31;;;;;;;10.78;7.10;;;;;;;3.17;100.00;99866.45;1638993;86;22619;-78
2021/03/25 10:51:14;;;;;;;12.13;7.10;;;;;;;3.23;100.00;99861.22;1639281;86;21246;-73
2021/03/25 10:53:50;;;;;;;11.43;6.60;;;;;;;3.22;100.00;99862.98;1641515;86;21143;-73
2021/03/25 10:56:27;;;;;;;9.43;6.87;;;;;;;3.21;100.00;99860.53;1639279;86;21222;-73
2021/03/25 10:59:03;;;;;;;9.05;6.62;;;;;;;3.14;100.00;99867.58;1632456;86;21567;-71
2021/03/25 11:01:33;;;;;;;7.58;5.75;;;;;;;3.04;100.00;99862.14;1639812;85;21690;-71
2021/03/25 11:04:18;;;;;;;9.98;6.55;;;;;;;2.95;100.00;99864.27;1637238;85;21097;-73
2021/03/25 11:06:47;;;;;;;9.15;5.85;;;;;;;2.90;100.00;99869.85;1640518;86;21255;-71
2021/03/25 11:09:25;;;;;;;9.60;5.95;;;;;;;2.90;100.00;99874.52;1634451;85;22191;-74
2021/03/25 11:12:20;;;;;;;9.93;6.50;;;;;;;2.91;100.00;99863.27;1640640;85;21278;-72
2021/03/25 11:14:56;;;;;;;10.13;7.05;;;;;;;2.90;100.00;99862.13;1638699;85;21256;-71
2021/03/25 11:17:30;;;;;;;11.63;6.60;;;;;;;2.88;100.00;99866.63;1637665;85;21104;-69
2021/03/25 11:20:01;;;;;;;9.93;6.05;;;;;;;2.87;100.00;99870.94;1641278;85;21248;-71
2021/03/25 11:22:33;;;;;;;9.73;6.78;;;;;;;2.85;100.00;99874.62;1641915;85;21389;-70
2021/03/25 11:25:04;;;;;;;10.53;6.55;;;;;;;2.82;100.00;99874.91;1639731;85;21219;-69
2021/03/25 11:27:32;;;;;;;10.48;6.85;;;;;;;2.82;100.00;99882.16;1638990;85;21207;-69
2021/03/25 11:30:10;;;;;;;8.88;6.42;;;;;;;2.82;100.00;99882.16;1634886;85;21137;-68
2021/03/25 11:32:41;;;;;;;11.00;6.97;;;;;;;2.82;100.00;99877.00;1618504;86;22105;-70
2021/03/25 11:35:30;;;;;;;12.05;7.10;;;;;;;2.80;100.00;99884.05;1631255;85;21401;-69
2021/03/25 11:38:28;;;;;;;8.53;5.92;;;;;;;2.81;100.00;99886.17;1632099;85;21238;-68
2021/03/25 11:41:08;;;;;;;11.25;6.75;;;;;;;2.82;100.00;99885.20;1633835;85;21628;-68
2021/03/25 11:43:53;;;;;;;11.20;6.90;;;;;;;2.84;100.00;99887.14;1630678;86;21176;-67
2021/03/25 11:49:24;;;;;;;11.90;6.33;;;;;;;3.06;100.00;99884.67;1805060;78;23461;-66
2021/03/25 11:51:59;;;;;;;11.50;6.70;;;;;;;3.14;100.00;99889.46;1777306;79;21029;-66
2021/03/25 11:54:29;;;;;;;11.73;6.78;;;;;;;3.28;100.00;99886.86;1787305;79;22052;-66
2021/03/25 11:57:04;;;;;;;10.45;7.05;;;;;;;3.37;100.00;99887.75;1791813;79;20954;-65
2021/03/25 11:59:38;;;;;;;13.93;8.48;;;;;;;3.43;100.00;99890.23;1778544;79;21065;-67
2021/03/25 12:02:20;;;;;;;27.05;21.90;;;;;;;3.44;100.00;99887.50;1781320;77;21105;-64
2021/03/25 12:04:50;;;;;;;21.00;15.40;;;;;;;3.47;100.00;99894.94;1770354;79;21006;-65
2021/03/25 12:07:22;;;;;;;18.77;14.75;;;;;;;3.47;100.00;99891.56;1786334;79;21385;-67
2021/03/25 12:10:18;;;;;;;16.93;11.60;;;;;;;3.49;100.00;99886.59;1779770;79;21037;-67
2021/03/25 12:12:48;;;;;;;10.53;6.20;;;;;;;3.52;100.00;99887.57;1745370;81;21053;-66
2021/03/25 12:15:18;;;;;;;10.85;6.28;;;;;;;3.53;100.00;99887.92;1722435;82;21281;-68
2021/03/25 12:17:59;;;;;;;9.58;6.40;;;;;;;3.60;100.00;99884.30;1721624;82;21666;-68
2021/03/25 12:20:35;;;;;;;9.93;7.17;;;;;;;3.66;100.00;99883.20;1734893;80;21207;-67
2021/03/25 12:23:26;;;;;;;8.90;5.90;;;;;;;3.63;100.00;99887.36;1729980;82;21124;-66
2021/03/25 12:25:58;;;;;;;10.50;6.28;;;;;;;3.55;100.00;99889.86;1722614;82;21006;-69
2021/03/25 12:28:26;;;;;;;11.35;6.22;;;;;;;3.47;100.00;99891.08;1725287;82;21799;-67
2021/03/25 12:30:55;;;;;;;8.75;6.12;;;;;;;3.44;100.00;99890.55;1723919;82;22400;-69
2021/03/25 12:33:31;;;;;;;8.83;5.90;;;;;;;3.44;100.00;99895.23;1715553;82;21881;-70
2021/03/25 12:36:01;;;;;;;9.98;7.37;;;;;;;3.45;100.00;99898.16;1728985;82;21088;-69
2021/03/25 12:38:30;;;;;;;9.23;6.62;;;;;;;3.43;100.00;99891.04;1714600;82;21171;-70
2021/03/25 12:41:00;;;;;;;9.28;6.45;;;;;;;3.43;100.00;99891.52;1757702;81;21227;-71
2021/03/25 12:43:32;;;;;;;10.32;6.47;;;;;;;3.43;100.00;99891.04;1721580;80;21177;-69
2021/03/25 12:46:08;;;;;;;9.15;6.95;;;;;;;3.40;100.00;99893.42;1720247;81;22111;-68
2021/03/25 12:48:37;;;;;;;11.93;6.97;;;;;;;3.33;100.00;99883.39;1749167;79;21228;-70
2021/03/25 12:51:07;;;;;;;9.18;6.45;;;;;;;3.28;100.00;99888.63;1747760;80;21227;-68
2021/03/25 12:53:37;;;;;;;11.30;7.45;;;;;;;3.25;100.00;99885.05;1731073;81;21057;-68
2021/03/25 12:56:06;;;;;;;9.75;6.90;;;;;;;3.25;100.00;99887.63;1726949;81;21237;-68
2021/03/25 12:58:38;;;;;;;10.05;7.35;;;;;;;3.28;100.00;99889.91;1738378;81;21159;-67
2021/03/25 13:01:12;;;;;;;11.93;6.33;;;;;;;3.29;100.00;99887.18;1711829;80;21018;-65
2021/03/25 13:03:41;;;;;;;10.05;6.10;;;;;;;3.34;100.00;99886.77;1734155;80;21055;-65
2021/03/25 13:06:10;;;;;;;8.60;5.95;;;;;;;3.41;100.00;99886.05;1734127;80;21009;-64
2021/03/25 13:08:39;;;;;;;10.82;6.95;;;;;;;3.46;100.00;99886.89;1736122;81;21536;-65
2021/03/25 13:11:13;;;;;;;8.25;5.65;;;;;;;3.50;100.00;99888.70;1740691;81;22298;-62
2021/03/25 13:13:42;;;;;;;;;;;;;;;3.53;100.00;99889.22;1737359;81;21149;-64
2021/03/25 13:16:10;;;;;;;9.65;6.90;;;;;;;3.57;100.00;99890.54;1732716;81;20198;-64
2021/03/25 13:18:38;;;;;;;9.80;6.35;;;;;;;3.61;100.00;99893.16;1737345;80;21124;-67
2021/03/25 13:21:09;;;;;;;8.98;6.00;;;;;;;3.65;100.00;99900.92;1739318;81;21218;-64
2021/03/25 13:23:37;;;;;;;8.73;6.45;;;;;;;3.64;100.00;99903.66;1731352;81;21366;-64
2021/03/25 13:26:08;;;;;;;9.13;6.42;;;;;;;3.65;100.00;99908.66;1724881;81;21240;-64
2021/03/25 13:28:37;;;;;;;11.33;7.22;;;;;;;3.69;100.00;99903.21;1740959;81;21192;-65
2021/03/25 13:31:06;;;;;;;10.20;7.58;;;;;;;3.73;100.00;99900.19;1727595;81;21191;-66
2021/03/25 13:33:35;;;;;;;11.53;7.22;;;;;;;3.78;100.00;99907.47;1729492;80;21042;-67
2021/03/25 13:36:05;;;;;;;10.58;7.08;;;;;;;3.78;100.00;99905.70;1734628;81;22454;-67
2021/03/25 13:38:35;;;;;;;10.10;6.78;;;;;;;3.77;100.00;99910.53;1731857;81;21014;-67
2021/03/25 13:41:03;;;;;;;12.03;6.70;;;;;;;3.75;100.00;99915.49;1732634;81;21203;-67
2021/03/25 13:43:34;;;;;;;10.95;6.90;;;;;;;3.71;100.00;99912.88;1725524;81;21069;-67
2021/03/25 13:46:03;;;;;;;10.48;7.58;;;;;;;3.71;100.00;99914.17;1731169;80;21641;-65
2021/03/25 13:48:33;;;;;;;11.00;6.60;;;;;;;3.74;100.00;99913.40;1731311;81;21395;-66
2021/03/25 13:51:05;;;;;;;10.40;7.42;;;;;;;3.79;100.00;99911.20;1724967;82;21168;-67
2021/03/25 13:53:33;;;;;;;9.98;6.35;;;;;;;3.80;100.00;99906.38;1730950;82;21595;-67
2021/03/25 13:56:02;;;;;;;11.60;7.00;;;;;;;3.85;100.00;99908.50;1726112;82;21161;-65
2021/03/25 13:58:30;;;;;;;10.48;7.37;;;;;;;3.88;100.00;99907.73;1729472;82;21532;-67
2021/03/25 14:01:01;;;;;;;10.90;6.78;;;;;;;3.90;100.00;99908.41;1727982;82;21636;-67
2021/03/25 14:03:31;;;;;;;14.43;7.42;;;;;;;3.93;100.00;99908.56;1724148;82;21153;-67
2021/03/25 14:05:59;;;;;;;9.28;6.22;;;;;;;3.94;100.00;99910.21;1717168;82;21188;-66
2021/03/25 14:08:28;;;;;;;10.13;6.58;;;;;;;3.93;100.00;99904.70;1722062;82;21228;-66
2021/03/25 14:10:58;;;;;;;9.90;6.85;;;;;;;3.92;100.00;99904.38;1721092;82;21069;-66
2021/03/25 14:13:27;;;;;;;10.35;7.03;;;;;;;3.92;100.00;99906.95;1717940;82;21340;-65
2021/03/25 14:15:58;;;;;;;11.05;7.28;;;;;;;3.88;100.00;99906.92;1715924;80;21006;-65
2021/03/25 14:18:27;;;;;;;11.95;7.65;;;;;;;3.86;100.00;99908.83;1716554;80;21658;-65
2021/03/25 14:20:58;;;;;;;10.00;7.12;;;;;;;3.82;100.00;99904.92;1718389;80;21503;-65
2021/03/25 14:23:27;;;;;;;11.20;7.62;;;;;;;3.79;100.00;99909.08;1717959;82;21583;-65
2021/03/25 14:25:55;;;;;;;9.78;6.83;;;;;;;3.77;100.00;99914.88;1719555;82;21786;-65
2021/03/25 14:28:27;;;;;;;10.60;7.15;;;;;;;3.74;100.00;99915.98;1718564;82;21042;-64
2021/03/25 14:30:55;;;;;;;12.80;7.40;;;;;;;3.73;100.00;99916.94;1719707;82;20978;-64
2021/03/25 14:33:25;;;;;;;10.23;7.17;;;;;;;3.72;100.00;99917.91;1726306;80;21680;-63
2021/03/25 14:35:53;;;;;;;10.45;7.47;;;;;;;3.70;100.00;99924.16;1721600;82;21592;-64
2021/03/25 14:38:23;;;;;;;13.95;8.25;;;;;;;3.69;100.00;99926.41;1716499;82;21323;-64
2021/03/25 14:40:52;;;;;;;17.02;10.30;;;;;;;3.67;100.00;99927.83;1720197;82;21718;-65
2021/03/25 14:43:22;;;;;;;17.45;10.45;;;;;;;3.65;100.00;99924.12;1730336;82;21026;-64
2021/03/25 14:45:52;;;;;;;19.25;11.65;;;;;;;3.64;100.00;99922.51;1721814;82;21164;-64
2021/03/25 14:48:20;;;;;;;37.28;22.20;;;;;;;3.67;100.00;99927.83;1714526;82;22291;-65
2021/03/25 14:50:52;;;;;;;27.58;15.32;;;;;;;3.68;100.00;99929.47;1722566;82;26765;-65
2021/03/25 14:53:20;;;;;;;27.55;13.65;;;;;;;3.71;100.00;99927.05;1773366;79;21019;-64
2021/03/25 14:55:49;;;;;;;20.85;11.45;;;;;;;3.72;100.00;99932.56;1790652;79;20996;-65
2021/03/25 14:58:17;;;;;;;21.77;11.20;;;;;;;3.69;100.00;99929.80;1773880;79;20985;-64
2021/03/25 15:00:46;;;;;;;23.40;13.10;;;;;;;3.70;100.00;99937.05;1769323;79;21645;-62
2021/03/25 15:03:20;;;;;;;20.95;11.45;;;;;;;3.70;100.00;99939.63;1791469;78;21350;-62
2021/03/25 15:05:51;;;;;;;20.70;12.25;;;;;;;3.70;100.00;99939.63;1777503;78;21010;-63
2021/03/25 15:08:21;;;;;;;29.80;18.12;;;;;;;3.68;100.00;99944.12;1770069;79;21138;-63
2021/03/25 15:10:49;;;;;;;28.52;15.98;;;;;;;3.64;100.00;99940.55;1784088;79;20990;-64
2021/03/25 15:13:18;;;;;;;26.23;15.53;;;;;;;3.61;100.00;99938.26;1785250;79;20995;-64
2021/03/25 15:15:46;;;;;;;23.73;15.28;;;;;;;3.60;100.00;99942.28;1775243;79;21387;-64
2021/03/25 15:18:15;;;;;;;23.77;15.98;;;;;;;3.57;100.00;99945.95;1780541;79;21134;-61
2021/03/25 15:20:45;;;;;;;28.05;17.65;;;;;;;3.54;100.00;99944.14;1770466;79;21006;-62
2021/03/25 15:23:32;;;;;;;14.55;9.13;;;;;;;3.52;100.00;99945.55;1766224;79;21753;-63
2021/03/25 15:26:08;;;;;;;13.05;8.43;;;;;;;3.51;100.00;99948.28;1775660;79;21103;-63
2021/03/25 15:28:36;;;;;;;14.63;9.53;;;;;;;3.50;100.00;99950.54;1768850;79;21596;-63
2021/03/25 15:31:07;;;;;;;10.70;7.00;;;;;;;3.49;100.00;99949.73;1766301;79;22356;-63
2021/03/25 15:33:35;;;;;;;10.98;7.45;;;;;;;3.46;100.00;99947.44;1770678;79;21151;-61
2021/03/25 15:36:27;;;;;;;12.20;7.58;;;;;;;3.44;100.00;99951.91;1772229;79;21150;-63
2021/03/25 15:38:55;;;;;;;11.65;7.65;;;;;;;3.42;100.00;99949.98;1687985;83;21196;-63
2021/03/25 15:41:23;;;;;;;11.15;7.53;;;;;;;3.37;100.00;99954.28;1664779;86;21229;-62
2021/03/25 15:43:54;;;;;;;12.00;8.33;;;;;;;3.34;100.00;99960.19;1620816;85;21260;-63
2021/03/25 15:46:26;;;;;;;14.53;8.78;;;;;;;3.30;100.00;99958.86;1664801;85;21062;-65
2021/03/25 15:48:55;;;;;;;12.63;7.95;;;;;;;3.27;100.00;99955.28;1665113;84;21499;-62
2021/03/25 15:51:26;;;;;;;16.45;10.93;;;;;;;3.23;100.00;99948.79;1664939;85;21133;-62
2021/03/25 15:53:56;;;;;;;25.30;14.10;;;;;;;3.20;100.00;99958.08;1662394;85;21373;-62
2021/03/25 15:56:25;;;;;;;24.77;15.78;;;;;;;3.15;100.00;99961.91;1662549;84;21237;-63
2021/03/25 15:58:54;;;;;;;33.13;17.57;;;;;;;3.13;100.00;99959.93;1666664;85;21644;-61
2021/03/25 16:01:22;;;;;;;19.05;11.22;;;;;;;3.12;100.00;99963.95;1666144;85;21325;-63
2021/03/25 16:03:50;;;;;;;22.40;11.85;;;;;;;3.10;100.00;99966.64;1663353;85;21154;-63
2021/03/25 16:06:19;;;;;;;15.53;9.40;;;;;;;3.08;100.00;99967.28;1650236;85;22653;-63
2021/03/25 16:08:48;;;;;;;14.05;8.28;;;;;;;3.07;100.00;99966.12;1664738;86;21596;-63
2021/03/25 16:11:18;;;;;;;14.07;8.80;;;;;;;3.05;100.00;99964.98;1662848;86;21090;-64
2021/03/25 16:13:47;;;;;;;15.63;9.48;;;;;;;3.04;100.00;99968.52;1664284;86;21177;-63
2021/03/25 16:16:16;;;;;;;18.48;11.00;;;;;;;3.05;100.00;99973.19;1700009;83;21955;-63
2021/03/25 16:18:46;;;;;;;16.40;9.35;;;;;;;3.03;100.00;99981.52;1697712;83;21461;-61